Time;durP1;ratioP1;P1;durP2;ratioP2;P2;SDS_P1;SDS_P2;PMS_P1;PMS_P2;Temp;Humidity;BMP_temperature;BMP_pressure;BME280_temperature;BME280_humidity;BME280_pressure;Samples;Min_cycle;Max_cycle;Signal;HPM_P1;HPM_P2
2022/05/15 00:01:33;;;;;;;7.85;3.00;;;;;;;12.38;54.01;100296.84;10267188;28;20137;-60
2022/05/15 00:06:35;;;;;;;9.75;2.92;;;;;;;12.32;54.03;100293.75;10269965;28;20058;-60
2022/05/15 00:11:36;;;;;;;8.43;3.30;;;;;;;12.27;54.12;100287.94;10268701;28;20165;-61
2022/05/15 00:16:39;;;;;;;7.40;2.80;;;;;;;12.24;54.25;100286.34;10270922;28;20051;-61
2022/05/15 00:21:40;;;;;;;6.45;3.15;;;;;;;12.22;54.02;100285.59;10269584;28;20219;-60
2022/05/15 00:26:42;;;;;;;7.32;3.30;;;;;;;12.10;54.36;100281.94;10268111;28;20138;-61
2022/05/15 00:31:44;;;;;;;6.85;3.17;;;;;;;12.01;54.71;100271.13;10265486;28;20141;-61
2022/05/15 00:36:46;;;;;;;7.95;2.97;;;;;;;12.00;54.60;100279.94;10266145;28;20515;-60
2022/05/15 00:41:47;;;;;;;7.47;3.35;;;;;;;11.78;55.19;100275.16;10266988;28;20075;-61
2022/05/15 00:46:49;;;;;;;7.10;3.17;;;;;;;11.83;55.12;100282.72;10265241;28;20082;-61
2022/05/15 00:52:03;;;;;;;6.18;3.22;;;;;;;11.79;55.70;100286.47;10263830;28;20529;-61
2022/05/15 00:57:29;;;;;;;8.05;3.17;;;;;;;11.72;55.81;100285.16;10266537;28;20119;-60
2022/05/15 01:02:37;;;;;;;8.23;3.42;;;;;;;11.66;55.59;100277.66;10265205;28;20047;-60
2022/05/15 01:07:39;;;;;;;9.30;4.10;;;;;;;11.64;55.64;100290.00;10266433;28;20134;-61
2022/05/15 01:12:43;;;;;;;7.38;4.28;;;;;;;11.55;55.70;100280.03;10265593;28;20149;-60
2022/05/15 01:17:45;;;;;;;8.77;3.50;;;;;;;11.51;55.68;100284.63;10262455;28;20058;-61
2022/05/15 01:22:47;;;;;;;7.82;3.17;;;;;;;11.46;55.79;100284.03;10264791;28;20078;-61
2022/05/15 01:27:54;;;;;;;5.97;3.25;;;;;;;11.41;56.02;100280.00;10264662;28;20418;-60
2022/05/15 01:32:56;;;;;;;8.18;3.50;;;;;;;11.29;56.28;100287.59;10285008;28;20491;-60
2022/05/15 01:37:58;;;;;;;7.97;3.47;;;;;;;11.14;56.70;100274.56;10261762;28;20467;-60
2022/05/15 01:43:00;;;;;;;5.82;3.33;;;;;;;11.09;56.81;100277.44;10265126;28;20133;-60
2022/05/15 01:48:03;;;;;;;8.50;3.40;;;;;;;11.08;56.79;100274.91;10263494;28;20054;-60
2022/05/15 01:53:05;;;;;;;12.00;3.67;;;;;;;11.05;56.89;100282.94;10262523;28;20552;-61
2022/05/15 01:58:09;;;;;;;6.75;3.58;;;;;;;11.01;57.01;100273.53;10267302;28;20137;-61
2022/05/15 02:03:11;;;;;;;8.57;4.43;;;;;;;10.86;56.80;100282.22;10275763;28;20140;-60
2022/05/15 02:08:13;;;;;;;7.95;3.85;;;;;;;10.59;57.57;100273.28;10295060;28;20094;-61
2022/05/15 02:13:15;;;;;;;8.07;3.63;;;;;;;10.49;57.82;100283.41;10285262;28;20149;-60
2022/05/15 02:18:17;;;;;;;6.95;3.55;;;;;;;10.56;57.87;100278.69;10270989;28;20093;-60
2022/05/15 02:23:19;;;;;;;5.45;3.65;;;;;;;10.65;57.44;100273.78;10274723;28;20146;-60
2022/05/15 02:28:21;;;;;;;6.68;3.60;;;;;;;10.59;57.52;100279.34;10268836;28;20524;-61
2022/05/15 02:33:22;;;;;;;7.60;3.80;;;;;;;10.55;57.79;100270.00;10272623;28;20551;-61
2022/05/15 02:38:24;;;;;;;5.28;3.70;;;;;;;10.44;57.76;100280.16;10270294;28;20134;-60
2022/05/15 02:43:26;;;;;;;5.50;3.30;;;;;;;10.36;58.06;100280.59;10277026;28;20054;-61
2022/05/15 02:53:48;;;;;;;5.70;3.83;;;;;;;10.44;58.19;100274.94;10270025;28;20150;-60
2022/05/15 02:58:50;;;;;;;7.05;3.78;;;;;;;10.35;58.18;100283.28;10268743;28;20082;-60
2022/05/15 03:03:52;;;;;;;9.75;4.05;;;;;;;10.33;58.26;100279.91;10267591;28;20424;-61
2022/05/15 03:08:54;;;;;;;9.52;4.40;;;;;;;10.20;57.77;100278.88;10264482;28;20059;-60
2022/05/15 03:13:56;;;;;;;6.50;3.85;;;;;;;9.68;58.43;100272.88;10262334;28;20090;-59
2022/05/15 03:18:58;;;;;;;7.70;4.75;;;;;;;9.71;59.11;100279.72;10262504;28;20148;-61
2022/05/15 03:24:06;;;;;;;9.25;4.10;;;;;;;9.59;59.56;100286.34;10280810;28;20046;-61
2022/05/15 03:29:09;;;;;;;8.13;3.92;;;;;;;9.76;59.24;100285.53;10275053;28;20396;-60
2022/05/15 03:34:13;;;;;;;7.43;4.18;;;;;;;9.88;58.90;100283.16;10264041;28;20069;-60
2022/05/15 03:39:15;;;;;;;10.80;4.30;;;;;;;9.91;58.51;100277.75;10283123;28;20065;-62
2022/05/15 03:44:18;;;;;;;6.57;4.18;;;;;;;9.71;58.98;100285.78;10258812;28;20091;-60
2022/05/15 03:49:20;;;;;;;7.57;4.00;;;;;;;9.85;59.02;100292.94;10273601;28;20090;-61
2022/05/15 03:54:22;;;;;;;7.13;4.32;;;;;;;9.95;58.65;100294.97;10267212;28;20051;-60
2022/05/15 03:59:34;;;;;;;9.57;4.05;;;;;;;10.07;58.50;100290.91;10259127;28;20126;-60
2022/05/15 04:04:37;;;;;;;6.70;4.32;;;;;;;9.76;58.65;100290.78;10261155;28;20570;-61
2022/05/15 04:09:45;;;;;;;11.70;4.95;;;;;;;9.98;57.98;100292.22;10261410;28;20492;-61
2022/05/15 04:14:47;;;;;;;10.82;4.53;;;;;;;9.91;58.03;100282.16;10260773;28;20089;-60
2022/05/15 04:19:49;;;;;;;8.70;4.45;;;;;;;9.97;58.18;100279.25;10270971;28;20158;-60
2022/05/15 04:24:51;;;;;;;6.72;4.35;;;;;;;10.23;58.00;100282.19;10291591;28;20125;-61
2022/05/15 04:29:53;;;;;;;6.68;4.30;;;;;;;11.41;56.12;100286.09;10265792;28;20558;-61
2022/05/15 04:34:54;;;;;;;7.25;3.97;;;;;;;13.97;51.01;100282.06;10269881;28;20556;-61
2022/05/15 04:39:56;;;;;;;8.23;3.92;;;;;;;15.99;46.34;100269.91;10268467;28;20138;-61
2022/05/15 04:44:58;;;;;;;8.80;3.85;;;;;;;17.48;43.34;100272.88;10268267;28;20385;-66
2022/05/15 04:49:59;;;;;;;6.47;3.50;;;;;;;18.53;41.13;100270.03;10268229;28;20050;-67
2022/05/15 04:55:02;;;;;;;6.43;3.60;;;;;;;18.87;39.73;100273.22;10266634;28;20133;-67
2022/05/15 05:00:06;;;;;;;6.45;3.58;;;;;;;18.84;39.46;100274.31;10273967;28;20137;-67
2022/05/15 05:05:08;;;;;;;6.97;3.40;;;;;;;19.95;37.90;100263.22;10272043;28;20517;-67
2022/05/15 05:10:12;;;;;;;6.45;3.45;;;;;;;20.45;36.40;100263.75;10262481;28;20046;-67
2022/05/15 05:15:14;;;;;;;8.73;3.75;;;;;;;18.79;38.70;100278.34;10263421;28;20043;-67
2022/05/15 05:20:16;;;;;;;5.75;3.40;;;;;;;17.57;41.05;100285.31;10264430;28;20074;-67
2022/05/15 05:25:18;;;;;;;6.20;3.67;;;;;;;16.58;42.31;100289.03;10262007;28;20594;-67
2022/05/15 05:30:23;;;;;;;8.50;3.90;;;;;;;15.84;44.34;100305.34;10274255;28;20141;-67
2022/05/15 05:35:26;;;;;;;6.97;3.75;;;;;;;15.38;45.65;100301.81;10265675;28;20153;-66
2022/05/15 05:40:28;;;;;;;8.32;3.60;;;;;;;15.16;46.24;100299.88;10265617;28;20137;-67
2022/05/15 05:45:30;;;;;;;8.25;4.30;;;;;;;15.01;47.26;100305.44;10266753;28;20186;-67
2022/05/15 05:50:33;;;;;;;9.18;3.90;;;;;;;14.79;48.06;100315.81;10275644;28;20066;-67
2022/05/15 05:55:36;;;;;;;7.32;3.78;;;;;;;14.85;48.45;100316.22;10266869;28;20061;-67
2022/05/15 06:00:38;;;;;;;13.10;4.30;;;;;;;14.90;48.51;100313.28;10264716;28;20046;-67
2022/05/15 06:05:40;;;;;;;9.57;4.00;;;;;;;14.85;48.74;100318.00;10264902;28;20051;-67
2022/05/15 06:10:42;;;;;;;7.30;3.97;;;;;;;14.91;48.88;100310.53;10264835;28;20078;-67
2022/05/15 06:15:46;;;;;;;7.70;4.07;;;;;;;15.06;48.89;100309.41;10262929;28;20086;-66
2022/05/15 06:20:48;;;;;;;10.13;3.97;;;;;;;15.16;49.38;100310.41;10262825;28;20042;-67
2022/05/15 06:25:50;;;;;;;7.32;3.70;;;;;;;15.35;48.86;100316.03;10263554;28;20047;-66
2022/05/15 06:30:51;;;;;;;9.95;4.60;;;;;;;15.53;48.42;100310.41;10265237;28;20122;-66
2022/05/15 06:35:53;;;;;;;9.68;3.95;;;;;;;15.53;47.41;100308.59;10259746;28;20063;-67
2022/05/15 06:40:56;;;;;;;10.02;4.57;;;;;;;15.46;47.07;100302.06;10261165;28;20490;-66
2022/05/15 06:45:57;;;;;;;11.00;4.40;;;;;;;15.89;46.84;100305.84;10261865;28;20082;-67
2022/05/15 06:50:59;;;;;;;12.05;4.30;;;;;;;16.19;46.70;100298.25;10260989;28;20369;-67
2022/05/15 07:01:22;;;;;;;10.02;4.03;;;;;;;16.64;45.83;100295.63;10263364;28;20157;-66
2022/05/15 07:06:24;;;;;;;11.93;4.50;;;;;;;16.87;44.75;100295.47;10257753;28;20057;-66
2022/05/15 07:11:26;;;;;;;9.48;4.22;;;;;;;17.08;44.83;100287.63;10285422;28;20081;-67
2022/05/15 07:16:28;;;;;;;10.80;4.40;;;;;;;17.61;44.10;100283.25;10260917;28;20145;-67
2022/05/15 07:21:30;;;;;;;11.80;4.32;;;;;;;18.03;43.09;100286.75;10263285;28;20388;-67
2022/05/15 07:26:34;;;;;;;10.45;4.40;;;;;;;17.97;43.43;100276.69;10243041;28;20334;-67
2022/05/15 07:31:35;;;;;;;11.02;4.00;;;;;;;19.31;41.97;100275.41;10256849;28;20121;-67
2022/05/15 07:36:38;;;;;;;8.77;3.88;;;;;;;20.28;39.54;100262.69;10262380;28;20077;-67
2022/05/15 07:41:40;;;;;;;10.98;4.20;;;;;;;21.05;37.92;100263.16;10252992;28;20416;-67
2022/05/15 07:46:42;;;;;;;12.73;3.65;;;;;;;21.34;37.27;100259.47;10252586;28;20593;-67
2022/05/15 07:51:47;;;;;;;10.38;4.15;;;;;;;21.47;36.84;100257.28;10260378;28;20070;-68
2022/05/15 07:56:49;;;;;;;9.63;3.80;;;;;;;21.96;36.20;100254.00;10271871;28;20055;-67
2022/05/15 08:01:54;;;;;;;10.75;3.60;;;;;;;22.64;35.39;100245.06;10266891;28;20109;-67
2022/05/15 08:12:16;;;;;;;9.75;3.40;;;;;;;23.58;33.85;100239.44;10267217;28;20098;-67
2022/05/15 08:17:18;;;;;;;12.57;3.70;;;;;;;23.21;34.32;100245.22;10269076;28;20439;-67
2022/05/15 08:27:40;;;;;;;11.00;3.40;;;;;;;23.43;33.46;100232.09;10266548;28;20051;-68
2022/05/15 08:32:42;;;;;;;9.73;3.17;;;;;;;23.63;33.33;100229.09;10262873;28;20529;-66
2022/05/15 08:37:44;;;;;;;9.45;3.30;;;;;;;23.74;33.33;100229.59;10268106;28;20146;-67
2022/05/15 08:42:56;;;;;;;9.82;3.22;;;;;;;24.60;32.79;100216.31;10260190;28;20051;-67
2022/05/15 08:48:16;;;;;;;9.93;3.97;;;;;;;25.01;30.48;100212.44;10266989;28;20082;-67
2022/05/15 08:53:40;;;;;;;7.80;3.00;;;;;;;25.10;30.73;100211.41;10260072;28;20141;-68
2022/05/15 08:58:51;;;;;;;9.60;3.22;;;;;;;24.92;30.87;100203.63;10263618;28;20539;-68
2022/05/15 09:03:54;;;;;;;10.15;3.42;;;;;;;25.07;31.71;100203.72;10264914;28;20586;-67
2022/05/15 09:09:20;;;;;;;7.22;3.10;;;;;;;24.15;32.25;100211.66;10265761;28;20118;-67
2022/05/15 09:14:25;;;;;;;13.27;2.90;;;;;;;24.86;31.89;100203.50;10261279;28;20055;-68
2022/05/15 09:19:27;;;;;;;9.43;3.47;;;;;;;24.87;31.50;100202.50;10263165;28;20129;-68
2022/05/15 09:24:38;;;;;;;10.60;3.47;;;;;;;25.26;30.26;100197.91;10264270;28;20141;-68
2022/05/15 09:29:40;;;;;;;13.45;3.35;;;;;;;25.22;30.86;100198.44;10263837;28;20779;-68
2022/05/15 09:34:43;;;;;;;10.13;3.08;;;;;;;25.75;30.94;100201.00;10265248;28;20075;-67
2022/05/15 09:40:01;;;;;;;11.52;2.88;;;;;;;25.86;29.78;100189.81;10272972;28;20489;-68
2022/05/15 09:45:16;;;;;;;9.48;3.20;;;;;;;25.57;30.39;100189.78;10263951;28;20078;-67
2022/05/15 09:50:52;;;;;;;10.18;3.20;;;;;;;25.62;29.44;100184.72;10257248;28;20744;-67
2022/05/15 09:56:10;;;;;;;9.63;3.10;;;;;;;25.96;29.35;100186.91;10259279;28;20474;-69
2022/05/15 10:01:22;;;;;;;6.25;2.70;;;;;;;26.09;29.13;100176.38;10273628;28;20492;-68
2022/05/15 10:06:37;;;;;;;7.30;2.88;;;;;;;25.92;29.16;100167.66;10262887;28;20047;-67
2022/05/15 10:11:47;;;;;;;8.25;3.05;;;;;;;26.08;29.15;100158.63;10263704;28;20545;-70
2022/05/15 10:16:52;;;;;;;8.77;2.67;;;;;;;25.87;29.10;100157.47;10277199;28;20473;-69
2022/05/15 10:22:13;;;;;;;8.55;2.90;;;;;;;25.79;30.19;100152.19;10260289;28;20062;-67
2022/05/15 10:27:23;;;;;;;7.05;2.38;;;;;;;25.73;30.62;100144.91;10261655;28;20148;-67
2022/05/15 10:32:47;;;;;;;9.50;2.92;;;;;;;25.50;30.52;100146.00;10262325;28;20096;-67
2022/05/15 10:38:07;;;;;;;8.43;2.70;;;;;;;25.48;30.79;100140.00;10262165;28;20051;-67
2022/05/15 10:43:21;;;;;;;10.98;2.83;;;;;;;25.03;31.69;100132.81;10262939;28;20072;-67
2022/05/15 10:49:01;;;;;;;8.60;2.50;;;;;;;24.90;31.58;100135.25;10262958;28;20141;-66
2022/05/15 10:59:35;;;;;;;11.00;3.05;;;;;;;24.63;30.66;100122.38;10259731;28;20047;-67
2022/05/15 11:04:55;;;;;;;6.97;2.50;;;;;;;24.42;30.82;100101.63;10256971;28;21341;-67
2022/05/15 11:10:09;;;;;;;7.85;2.72;;;;;;;24.65;32.92;100085.59;10257618;28;20094;-67
2022/05/15 11:15:45;;;;;;;5.65;2.35;;;;;;;24.48;30.40;100084.88;10260827;28;20433;-66
2022/05/15 11:20:53;;;;;;;7.72;2.45;;;;;;;24.71;31.44;100079.53;10288347;28;20042;-67
2022/05/15 11:26:33;;;;;;;5.05;1.90;;;;;;;24.60;29.65;100080.78;10270757;28;20467;-67
2022/05/15 11:31:42;;;;;;;7.50;2.30;;;;;;;24.60;30.30;100067.41;10259896;28;20570;-67
2022/05/15 11:36:47;;;;;;;5.32;2.25;;;;;;;24.96;30.72;100064.97;10260240;28;20086;-67
2022/05/15 11:42:08;;;;;;;6.15;2.03;;;;;;;25.10;28.64;100056.16;10254235;28;20193;-66
2022/05/15 11:47:34;;;;;;;8.43;2.50;;;;;;;24.93;30.19;100051.97;10262694;28;20055;-66
2022/05/15 11:53:01;;;;;;;8.10;2.33;;;;;;;24.70;30.24;100051.94;10260505;28;20532;-67
2022/05/15 11:58:19;;;;;;;8.35;2.70;;;;;;;24.95;29.39;100052.63;10258581;28;20189;-67
2022/05/15 12:03:42;;;;;;;5.43;2.08;;;;;;;25.20;30.01;100053.22;10259533;28;20162;-67
2022/05/15 12:08:50;;;;;;;9.43;2.60;;;;;;;25.38;28.96;100046.53;10260737;28;20403;-67
2022/05/15 12:13:53;;;;;;;7.63;2.30;;;;;;;26.15;29.00;100033.53;10260752;28;20170;-67
2022/05/15 12:19:22;;;;;;;5.97;2.38;;;;;;;26.50;26.88;100040.72;10259225;28;20525;-66
2022/05/15 12:24:32;;;;;;;6.25;2.10;;;;;;;26.80;27.50;100025.34;10261229;28;20159;-66
2022/05/15 12:29:53;;;;;;;5.65;2.20;;;;;;;26.69;25.88;100021.31;10259251;28;20047;-66
2022/05/15 12:34:58;;;;;;;9.05;2.20;;;;;;;26.98;25.83;100010.44;10249072;28;20205;-66
2022/05/15 12:40:02;;;;;;;7.03;2.15;;;;;;;26.71;26.00;100011.22;10256929;28;20163;-66
2022/05/15 12:45:19;;;;;;;6.85;2.15;;;;;;;26.44;25.84;100007.47;10263893;28;20113;-67
2022/05/15 12:50:21;;;;;;;5.97;2.05;;;;;;;26.29;26.00;100001.31;10264603;28;20388;-67
2022/05/15 12:55:29;;;;;;;5.68;1.98;;;;;;;26.09;25.94;99994.09;10265013;28;20109;-66
2022/05/15 13:00:42;;;;;;;7.20;2.10;;;;;;;25.48;24.80;99996.22;10263352;28;20082;-67
2022/05/15 13:05:57;;;;;;;8.95;1.95;;;;;;;25.67;26.47;99995.63;10266193;28;20213;-67
2022/05/15 13:11:04;;;;;;;4.57;1.90;;;;;;;25.78;28.32;99980.91;10264644;28;20145;-66
2022/05/15 13:16:14;;;;;;;9.48;1.92;;;;;;;25.66;26.33;99979.75;10264310;28;20393;-68
2022/05/15 13:21:28;;;;;;;6.10;1.95;;;;;;;25.71;27.05;99983.50;10282642;28;20108;-67
2022/05/15 13:26:38;;;;;;;6.10;2.08;;;;;;;25.68;26.56;99986.59;10266239;28;20069;-67
2022/05/15 13:31:42;;;;;;;7.90;2.10;;;;;;;25.51;26.72;99978.94;10265556;28;20054;-67
2022/05/15 13:36:55;;;;;;;5.25;2.00;;;;;;;25.62;26.30;99973.94;10257565;28;20134;-67
2022/05/15 13:47:25;;;;;;;6.60;1.70;;;;;;;26.15;27.19;99971.88;10263036;28;20043;-67
2022/05/15 13:52:34;;;;;;;5.15;1.63;;;;;;;26.30;27.83;99968.09;10263850;28;20149;-67
2022/05/15 13:57:52;;;;;;;8.07;2.00;;;;;;;26.34;26.42;99965.91;10260441;28;20534;-66
2022/05/15 14:03:06;;;;;;;5.88;1.95;;;;;;;26.13;25.77;99952.47;10263113;28;20170;-67
2022/05/15 14:08:15;;;;;;;3.63;1.65;;;;;;;25.92;24.31;99953.25;10264715;28;20059;-67
2022/05/15 14:13:17;;;;;;;5.00;2.10;;;;;;;25.78;25.90;99951.44;10260690;28;21223;-66
2022/05/15 14:18:30;;;;;;;6.85;2.03;;;;;;;25.97;26.31;99942.00;10259456;28;20051;-67
2022/05/15 14:23:32;;;;;;;5.95;1.85;;;;;;;26.03;25.89;99933.19;10261705;28;20059;-66
2022/05/15 14:28:35;;;;;;;5.95;1.90;;;;;;;26.01;25.17;99932.56;10258992;28;20384;-66
2022/05/15 14:33:41;;;;;;;8.23;1.90;;;;;;;25.88;25.55;99934.06;10259625;28;20093;-66
2022/05/15 14:38:43;;;;;;;4.60;1.80;;;;;;;25.57;25.97;99928.13;10259924;28;20506;-67
2022/05/15 14:43:45;;;;;;;5.25;1.98;;;;;;;25.49;26.56;99927.44;10259589;28;20039;-67
2022/05/15 14:48:49;;;;;;;6.25;1.90;;;;;;;25.53;26.50;99929.50;10257792;28;20055;-67
2022/05/15 14:53:57;;;;;;;6.22;1.90;;;;;;;25.78;26.71;99925.50;10260338;28;20039;-67
2022/05/15 14:59:07;;;;;;;5.32;2.00;;;;;;;26.11;26.66;99923.19;10256722;28;20074;-67
2022/05/15 15:04:11;;;;;;;8.88;2.28;;;;;;;26.08;26.98;99906.66;10259480;28;20058;-66
2022/05/15 15:09:13;;;;;;;5.53;1.92;;;;;;;26.02;26.28;99910.13;10262588;28;20043;-66
2022/05/15 15:14:16;;;;;;;5.25;1.92;;;;;;;26.22;25.95;99908.44;10260403;28;20515;-67
2022/05/15 15:19:22;;;;;;;5.75;2.10;;;;;;;26.00;25.82;99912.16;10258444;28;20057;-66
2022/05/15 15:24:25;;;;;;;9.48;2.10;;;;;;;26.27;27.08;99906.00;10278591;28;20185;-66
2022/05/15 15:29:27;;;;;;;7.85;2.05;;;;;;;26.13;26.01;99894.34;10255261;28;20078;-66
2022/05/15 15:34:29;;;;;;;5.55;2.00;;;;;;;26.22;26.51;99889.69;10269765;28;20065;-67
2022/05/15 15:39:31;;;;;;;5.15;2.40;;;;;;;26.05;26.65;99878.41;10262282;28;20105;-66
2022/05/15 15:44:38;;;;;;;8.73;2.00;;;;;;;25.92;27.00;99888.94;10251151;28;20190;-67
2022/05/15 15:49:39;;;;;;;5.20;1.98;;;;;;;25.91;26.10;99873.91;10255631;28;20051;-67
2022/05/15 15:54:43;;;;;;;5.72;2.00;;;;;;;26.15;27.25;99864.66;10258076;28;20051;-66
2022/05/15 15:59:46;;;;;;;5.60;1.88;;;;;;;26.40;26.61;99857.84;10253910;28;20047;-67
2022/05/15 16:04:48;;;;;;;5.88;2.20;;;;;;;26.47;24.35;99856.03;10256875;28;20078;-67
2022/05/15 16:09:50;;;;;;;6.57;2.30;;;;;;;26.12;25.54;99857.81;10265564;28;20050;-67
2022/05/15 16:14:52;;;;;;;11.00;2.35;;;;;;;25.88;26.16;99858.19;10259420;28;20050;-67
2022/05/15 16:19:56;;;;;;;6.47;2.00;;;;;;;25.69;27.04;99848.94;10261557;28;20208;-67
2022/05/15 16:25:01;;;;;;;7.65;2.03;;;;;;;25.39;26.86;99849.22;10271556;28;20736;-67
2022/05/15 16:30:06;;;;;;;6.30;2.05;;;;;;;25.36;27.83;99845.09;10278342;28;20343;-67
2022/05/15 16:35:08;;;;;;;7.07;2.40;;;;;;;25.40;27.84;99838.34;10264443;28;20156;-67
2022/05/15 16:40:11;;;;;;;6.28;1.90;;;;;;;25.31;28.32;99834.06;10263937;28;20507;-68
2022/05/15 16:45:21;;;;;;;6.80;2.17;;;;;;;25.04;27.29;99822.22;10256502;28;20047;-66
2022/05/15 16:50:23;;;;;;;6.95;2.08;;;;;;;25.02;28.39;99818.88;10258950;28;20043;-67
2022/05/15 16:55:31;;;;;;;5.20;2.05;;;;;;;25.18;28.83;99817.88;10258843;28;20062;-68
2022/05/15 17:00:33;;;;;;;5.20;1.95;;;;;;;25.34;28.28;99806.13;10263549;28;20074;-67
2022/05/15 17:05:36;;;;;;;8.35;2.20;;;;;;;25.47;28.75;99809.75;10272569;28;20062;-67
2022/05/15 17:10:38;;;;;;;6.75;2.30;;;;;;;25.31;28.35;99804.63;10283033;28;20050;-67
2022/05/15 17:15:43;;;;;;;7.60;2.33;;;;;;;25.14;27.82;99810.41;10269304;28;20054;-67
2022/05/15 17:20:46;;;;;;;7.45;2.42;;;;;;;25.23;28.28;99804.72;10261783;28;20047;-67
2022/05/15 17:25:48;;;;;;;6.78;2.10;;;;;;;25.11;28.64;99798.22;10268532;28;20114;-67
2022/05/15 17:36:10;;;;;;;8.30;2.75;;;;;;;24.88;29.60;99784.13;10263774;28;20282;-67
2022/05/15 17:41:12;;;;;;;15.57;2.63;;;;;;;24.72;29.80;99777.16;10280478;28;20113;-66
2022/05/15 17:46:14;;;;;;;8.05;2.20;;;;;;;24.53;29.46;99771.50;10263283;28;20504;-67
2022/05/15 17:51:17;;;;;;;6.75;2.38;;;;;;;24.38;30.40;99776.00;10272082;28;20077;-67
2022/05/15 17:56:18;;;;;;;5.75;2.35;;;;;;;24.13;30.61;99781.59;10265397;28;20054;-66
2022/05/15 18:01:21;;;;;;;5.95;2.25;;;;;;;23.91;31.13;99779.78;10260397;28;20209;-66
2022/05/15 18:06:23;;;;;;;7.28;2.13;;;;;;;23.80;31.79;99782.88;10265883;28;20329;-67
2022/05/15 18:11:25;;;;;;;5.97;2.30;;;;;;;23.65;32.23;99784.69;10254218;28;20051;-68
2022/05/15 18:16:26;;;;;;;7.53;2.40;;;;;;;23.54;32.28;99781.56;10264157;28;20384;-67
2022/05/15 18:21:28;;;;;;;6.75;2.60;;;;;;;23.37;32.81;99780.84;10260318;28;20054;-66
2022/05/15 18:26:30;;;;;;;8.70;2.47;;;;;;;23.17;33.36;99785.78;10276075;28;20046;-66
2022/05/15 18:31:32;;;;;;;7.63;2.30;;;;;;;23.02;33.57;99779.56;10264249;28;20082;-66
2022/05/15 18:36:35;;;;;;;8.90;2.30;;;;;;;22.85;34.13;99785.97;10262350;28;20054;-66
2022/05/15 18:41:42;;;;;;;6.88;2.25;;;;;;;22.67;34.39;99788.00;10254629;28;20137;-67
2022/05/15 18:46:43;;;;;;;9.60;2.60;;;;;;;22.39;34.86;99784.09;10262256;28;20141;-66
2022/05/15 18:57:06;;;;;;;5.53;2.10;;;;;;;21.48;36.31;99782.59;10262870;28;20141;-66
2022/05/15 19:02:09;;;;;;;9.30;2.60;;;;;;;21.29;37.03;99794.38;10260951;28;20143;-66
2022/05/15 19:07:11;;;;;;;10.45;2.63;;;;;;;21.17;37.61;99797.50;10261902;28;20491;-66
2022/05/15 19:12:13;;;;;;;10.60;2.70;;;;;;;20.97;37.54;99795.09;10262728;28;20527;-66
2022/05/15 19:17:21;;;;;;;5.32;2.60;;;;;;;20.69;38.28;99806.97;10271732;28;20217;-66
2022/05/15 19:22:23;;;;;;;7.63;2.53;;;;;;;20.51;38.95;99806.16;10262225;28;20117;-66
2022/05/15 19:27:24;;;;;;;6.47;2.55;;;;;;;20.31;39.83;99812.69;10261736;28;20082;-66
2022/05/15 19:32:28;;;;;;;9.90;3.47;;;;;;;20.07;40.41;99825.81;10257666;28;20145;-67
2022/05/15 19:37:30;;;;;;;6.93;2.65;;;;;;;19.78;40.59;99819.88;10259432;28;20061;-67
2022/05/15 19:42:32;;;;;;;10.45;3.17;;;;;;;19.72;41.50;99825.81;10266259;28;20141;-66
2022/05/15 19:47:34;;;;;;;6.68;2.30;;;;;;;19.63;42.14;99830.19;10261553;28;20459;-67
2022/05/15 19:52:36;;;;;;;8.73;2.88;;;;;;;19.49;42.62;99825.41;10262254;28;20946;-66
2022/05/15 19:57:38;;;;;;;7.53;2.60;;;;;;;19.30;43.27;99841.44;10266968;28;20432;-60
2022/05/15 20:02:40;;;;;;;7.68;2.50;;;;;;;19.01;44.19;99846.06;10268718;28;20141;-60
2022/05/15 20:13:22;;;;;;;9.20;3.30;;;;;;;18.81;44.74;99852.44;10285396;28;20402;-61
2022/05/15 20:18:24;;;;;;;9.40;2.92;;;;;;;18.60;44.99;99855.28;10297659;28;20141;-61
2022/05/15 20:23:26;;;;;;;8.35;3.60;;;;;;;18.43;45.48;99862.16;10273455;28;20105;-61
2022/05/15 20:28:28;;;;;;;7.65;3.25;;;;;;;17.89;46.46;99874.31;10268228;28;20142;-61
2022/05/15 20:33:30;;;;;;;8.95;3.10;;;;;;;17.71;46.84;99869.72;10270164;28;20049;-60
2022/05/15 20:38:32;;;;;;;7.20;2.38;;;;;;;17.65;47.09;99864.97;10269497;28;20086;-60
2022/05/15 20:43:36;;;;;;;6.57;3.15;;;;;;;17.35;47.66;99875.66;10267725;28;20153;-60
2022/05/15 20:48:39;;;;;;;5.53;2.80;;;;;;;17.11;48.32;99872.50;10268458;28;20141;-60
2022/05/15 20:53:45;;;;;;;7.63;2.53;;;;;;;17.08;48.38;99877.22;10281531;28;20364;-61
2022/05/15 20:58:47;;;;;;;6.97;2.88;;;;;;;17.07;48.57;99876.38;10267772;28;20608;-60
2022/05/15 21:03:49;;;;;;;6.38;2.90;;;;;;;17.03;48.86;99891.66;10265816;28;20558;-61
2022/05/15 21:08:51;;;;;;;8.18;2.85;;;;;;;16.93;48.74;99882.03;10265824;28;20049;-61
2022/05/15 21:13:53;;;;;;;7.60;3.20;;;;;;;16.68;49.54;99883.28;10267506;28;20534;-60
2022/05/15 21:18:55;;;;;;;6.80;2.95;;;;;;;16.63;49.79;99884.66;10265820;28;20173;-60
2022/05/15 21:23:56;;;;;;;7.57;2.88;;;;;;;16.70;49.81;99889.28;10274063;28;20158;-61
2022/05/15 21:28:58;;;;;;;6.03;2.80;;;;;;;16.70;49.71;99891.06;10266701;28;20086;-61
2022/05/15 21:34:00;;;;;;;6.35;2.70;;;;;;;16.61;50.18;99891.88;10274374;28;20453;-61
2022/05/15 21:44:24;;;;;;;7.20;3.03;;;;;;;16.03;51.29;99894.09;10273383;28;20053;-61
2022/05/15 21:49:26;;;;;;;8.38;3.17;;;;;;;15.97;51.18;99901.66;10265182;28;20082;-61
2022/05/15 21:54:28;;;;;;;8.57;3.00;;;;;;;15.74;52.08;99903.56;10264472;28;20146;-61
2022/05/15 22:04:51;;;;;;;9.02;3.15;;;;;;;15.48;52.47;99904.78;10263001;28;20125;-61
2022/05/15 22:09:54;;;;;;;9.25;3.20;;;;;;;15.53;52.57;99910.53;10265223;28;20641;-60
2022/05/15 22:14:56;;;;;;;9.10;3.67;;;;;;;15.55;52.60;99911.25;10263784;28;20411;-60
2022/05/15 22:20:00;;;;;;;9.07;3.67;;;;;;;15.63;52.49;99908.88;10263389;28;20133;-60
2022/05/15 22:25:03;;;;;;;9.45;3.28;;;;;;;15.60;52.88;99909.09;10264318;28;20479;-60
2022/05/15 22:30:07;;;;;;;6.50;3.10;;;;;;;15.26;53.19;99910.94;10263678;28;20340;-60
2022/05/15 22:35:09;;;;;;;10.00;3.30;;;;;;;15.06;53.76;99913.47;10263340;28;20111;-60
2022/05/15 22:40:21;;;;;;;6.63;3.00;;;;;;;15.08;53.89;99916.81;10417882;28;20656;-60
2022/05/15 22:45:23;;;;;;;5.82;3.40;;;;;;;14.88;54.20;99910.47;10418599;28;20084;-60
2022/05/15 22:50:26;;;;;;;7.40;3.28;;;;;;;14.88;54.44;99914.91;10419022;28;20123;-60
2022/05/15 22:55:28;;;;;;;12.63;3.45;;;;;;;14.81;54.34;99911.06;10416707;28;20044;-60
2022/05/15 23:00:29;;;;;;;7.47;3.58;;;;;;;14.36;55.33;99907.50;10418739;28;20041;-60
2022/05/15 23:10:52;;;;;;;;;;;;;;;14.16;55.66;99909.00;10417949;28;20205;-61
2022/05/15 23:15:56;;;;;;;8.82;3.72;;;;;;;14.43;55.22;99904.28;10416389;28;20019;-61
2022/05/15 23:20:58;;;;;;;6.65;3.70;;;;;;;14.30;55.14;99905.31;10417785;28;20149;-61
2022/05/15 23:26:01;;;;;;;7.97;3.33;;;;;;;14.28;55.49;99900.19;10416062;28;20330;-60
2022/05/15 23:31:10;;;;;;;7.00;3.20;;;;;;;14.30;55.90;99889.53;10417979;28;20612;-60
2022/05/15 23:36:12;;;;;;;8.70;3.17;;;;;;;14.32;55.77;99896.38;10414004;28;20065;-60
2022/05/15 23:41:14;;;;;;;7.50;3.78;;;;;;;14.18;55.59;99887.84;10417496;28;20049;-60
2022/05/15 23:46:15;;;;;;;5.40;3.45;;;;;;;14.10;56.05;99885.78;10416388;28;20059;-60
2022/05/15 23:51:17;;;;;;;8.18;3.50;;;;;;;14.06;56.02;99884.34;10388880;28;20045;-60
2022/05/15 23:56:19;;;;;;;9.95;3.40;;;;;;;14.06;56.18;99875.59;10385334;28;20491;-60
